sensor_id;sensor_type;location;lat;lon;timestamp;temperature;humidity
69932;DHT22;57243;52.064;5.116;2023-04-24T00:00:32;17.30;67.10
69932;DHT22;57243;52.064;5.116;2023-04-24T00:02:57;17.20;67.10
69932;DHT22;57243;52.064;5.116;2023-04-24T00:05:23;17.30;67.10
69932;DHT22;57243;52.064;5.116;2023-04-24T00:07:49;17.20;67.10
69932;DHT22;57243;52.064;5.116;2023-04-24T00:10:17;17.20;67.10
69932;DHT22;57243;52.064;5.116;2023-04-24T00:12:43;17.20;67.10
69932;DHT22;57243;52.064;5.116;2023-04-24T00:15:09;17.20;67.10
69932;DHT22;57243;52.064;5.116;2023-04-24T00:17:34;17.20;67.20
69932;DHT22;57243;52.064;5.116;2023-04-24T00:20:00;17.30;67.10
69932;DHT22;57243;52.064;5.116;2023-04-24T00:22:28;17.20;67.10
69932;DHT22;57243;52.064;5.116;2023-04-24T00:24:54;17.20;67.20
69932;DHT22;57243;52.064;5.116;2023-04-24T00:27:19;17.20;67.20
69932;DHT22;57243;52.064;5.116;2023-04-24T00:29:45;17.20;67.20
69932;DHT22;57243;52.064;5.116;2023-04-24T00:32:10;17.20;67.20
69932;DHT22;57243;52.064;5.116;2023-04-24T00:34:36;17.20;67.20
69932;DHT22;57243;52.064;5.116;2023-04-24T00:37:01;17.20;67.30
69932;DHT22;57243;52.064;5.116;2023-04-24T00:39:27;17.20;67.20
69932;DHT22;57243;52.064;5.116;2023-04-24T00:41:53;17.20;67.20
69932;DHT22;57243;52.064;5.116;2023-04-24T00:44:19;17.20;67.20
69932;DHT22;57243;52.064;5.116;2023-04-24T00:46:45;17.20;67.30
69932;DHT22;57243;52.064;5.116;2023-04-24T00:49:11;17.20;67.20
69932;DHT22;57243;52.064;5.116;2023-04-24T00:51:37;17.20;67.30
69932;DHT22;57243;52.064;5.116;2023-04-24T00:54:02;17.20;67.30
69932;DHT22;57243;52.064;5.116;2023-04-24T00:56:28;17.20;67.30
69932;DHT22;57243;52.064;5.116;2023-04-24T00:58:53;17.20;67.30
69932;DHT22;57243;52.064;5.116;2023-04-24T01:01:20;17.20;67.30
69932;DHT22;57243;52.064;5.116;2023-04-24T01:03:46;17.20;67.30
69932;DHT22;57243;52.064;5.116;2023-04-24T01:06:12;17.20;67.30
69932;DHT22;57243;52.064;5.116;2023-04-24T01:08:38;17.20;67.40
69932;DHT22;57243;52.064;5.116;2023-04-24T01:11:04;17.20;67.40
69932;DHT22;57243;52.064;5.116;2023-04-24T01:13:30;17.20;67.30
69932;DHT22;57243;52.064;5.116;2023-04-24T01:15:56;17.20;67.40
69932;DHT22;57243;52.064;5.116;2023-04-24T01:18:22;17.20;67.40
69932;DHT22;57243;52.064;5.116;2023-04-24T01:20:47;17.20;67.40
69932;DHT22;57243;52.064;5.116;2023-04-24T01:23:14;17.20;67.40
69932;DHT22;57243;52.064;5.116;2023-04-24T01:25:40;17.20;67.50
69932;DHT22;57243;52.064;5.116;2023-04-24T01:28:06;17.20;67.40
69932;DHT22;57243;52.064;5.116;2023-04-24T01:30:33;17.20;67.40
69932;DHT22;57243;52.064;5.116;2023-04-24T01:32:58;17.20;67.40
69932;DHT22;57243;52.064;5.116;2023-04-24T01:35:24;17.20;67.40
69932;DHT22;57243;52.064;5.116;2023-04-24T01:37:50;17.20;67.40
69932;DHT22;57243;52.064;5.116;2023-04-24T01:40:15;17.20;67.40
69932;DHT22;57243;52.064;5.116;2023-04-24T01:42:41;17.20;67.40
69932;DHT22;57243;52.064;5.116;2023-04-24T01:45:06;17.20;67.40
69932;DHT22;57243;52.064;5.116;2023-04-24T01:47:35;17.20;67.50
69932;DHT22;57243;52.064;5.116;2023-04-24T01:50:01;17.20;67.50
69932;DHT22;57243;52.064;5.116;2023-04-24T01:52:26;17.20;67.40
69932;DHT22;57243;52.064;5.116;2023-04-24T01:54:52;17.20;67.60
69932;DHT22;57243;52.064;5.116;2023-04-24T01:57:18;17.20;67.50
69932;DHT22;57243;52.064;5.116;2023-04-24T01:59:43;17.20;67.50
69932;DHT22;57243;52.064;5.116;2023-04-24T02:02:09;17.20;67.50
69932;DHT22;57243;52.064;5.116;2023-04-24T02:04:34;17.20;67.50
69932;DHT22;57243;52.064;5.116;2023-04-24T02:07:00;17.20;67.50
69932;DHT22;57243;52.064;5.116;2023-04-24T02:09:25;17.20;67.60
69932;DHT22;57243;52.064;5.116;2023-04-24T02:11:51;17.20;67.60
69932;DHT22;57243;52.064;5.116;2023-04-24T02:14:16;17.20;67.50
69932;DHT22;57243;52.064;5.116;2023-04-24T02:16:42;17.20;67.60
69932;DHT22;57243;52.064;5.116;2023-04-24T02:19:07;17.20;67.60
69932;DHT22;57243;52.064;5.116;2023-04-24T02:21:33;17.20;67.50
69932;DHT22;57243;52.064;5.116;2023-04-24T02:23:58;17.20;67.60
69932;DHT22;57243;52.064;5.116;2023-04-24T02:26:24;17.20;67.60
69932;DHT22;57243;52.064;5.116;2023-04-24T02:28:50;17.20;67.70
69932;DHT22;57243;52.064;5.116;2023-04-24T02:31:15;17.20;67.60
69932;DHT22;57243;52.064;5.116;2023-04-24T02:33:41;17.20;67.70
69932;DHT22;57243;52.064;5.116;2023-04-24T02:36:06;17.20;67.60
69932;DHT22;57243;52.064;5.116;2023-04-24T02:38:32;17.20;67.60
69932;DHT22;57243;52.064;5.116;2023-04-24T02:40:57;17.20;67.60
69932;DHT22;57243;52.064;5.116;2023-04-24T02:43:23;17.20;67.60
69932;DHT22;57243;52.064;5.116;2023-04-24T02:45:49;17.20;67.60
69932;DHT22;57243;52.064;5.116;2023-04-24T02:48:14;17.20;67.60
69932;DHT22;57243;52.064;5.116;2023-04-24T02:50:40;17.20;67.60
69932;DHT22;57243;52.064;5.116;2023-04-24T02:53:06;17.20;67.70
69932;DHT22;57243;52.064;5.116;2023-04-24T02:55:31;17.20;67.60
69932;DHT22;57243;52.064;5.116;2023-04-24T02:57:57;17.20;67.70
69932;DHT22;57243;52.064;5.116;2023-04-24T03:00:22;17.20;67.70
69932;DHT22;57243;52.064;5.116;2023-04-24T03:02:48;17.20;67.70
69932;DHT22;57243;52.064;5.116;2023-04-24T03:05:14;17.20;67.70
69932;DHT22;57243;52.064;5.116;2023-04-24T03:07:40;17.20;67.70
69932;DHT22;57243;52.064;5.116;2023-04-24T03:10:06;17.20;67.70
69932;DHT22;57243;52.064;5.116;2023-04-24T03:12:32;17.20;67.70
69932;DHT22;57243;52.064;5.116;2023-04-24T03:14:57;17.20;67.70
69932;DHT22;57243;52.064;5.116;2023-04-24T03:17:23;17.20;67.80
69932;DHT22;57243;52.064;5.116;2023-04-24T03:19:48;17.20;67.70
69932;DHT22;57243;52.064;5.116;2023-04-24T03:22:14;17.20;67.80
69932;DHT22;57243;52.064;5.116;2023-04-24T03:24:39;17.20;67.80
69932;DHT22;57243;52.064;5.116;2023-04-24T03:27:05;17.20;67.80
69932;DHT22;57243;52.064;5.116;2023-04-24T03:29:31;17.20;67.70
69932;DHT22;57243;52.064;5.116;2023-04-24T03:31:56;17.20;67.70
69932;DHT22;57243;52.064;5.116;2023-04-24T03:34:22;17.20;67.80
69932;DHT22;57243;52.064;5.116;2023-04-24T03:36:47;17.20;67.90
69932;DHT22;57243;52.064;5.116;2023-04-24T03:39:13;17.20;67.80
69932;DHT22;57243;52.064;5.116;2023-04-24T03:41:38;17.20;67.80
69932;DHT22;57243;52.064;5.116;2023-04-24T03:44:04;17.20;67.90
69932;DHT22;57243;52.064;5.116;2023-04-24T03:46:29;17.20;67.90
69932;DHT22;57243;52.064;5.116;2023-04-24T03:48:55;17.20;67.90
69932;DHT22;57243;52.064;5.116;2023-04-24T03:51:20;17.20;68.00
69932;DHT22;57243;52.064;5.116;2023-04-24T03:53:47;17.20;68.00
69932;DHT22;57243;52.064;5.116;2023-04-24T03:56:12;17.20;68.00
69932;DHT22;57243;52.064;5.116;2023-04-24T03:58:38;17.20;68.10
69932;DHT22;57243;52.064;5.116;2023-04-24T04:01:03;17.20;68.10
69932;DHT22;57243;52.064;5.116;2023-04-24T04:03:29;17.30;68.60
69932;DHT22;57243;52.064;5.116;2023-04-24T04:05:54;17.30;68.80
69932;DHT22;57243;52.064;5.116;2023-04-24T04:08:20;17.40;68.30
69932;DHT22;57243;52.064;5.116;2023-04-24T04:10:45;17.30;67.90
69932;DHT22;57243;52.064;5.116;2023-04-24T04:13:11;17.30;67.10
69932;DHT22;57243;52.064;5.116;2023-04-24T04:15:36;17.30;67.00
69932;DHT22;57243;52.064;5.116;2023-04-24T04:18:02;17.30;66.80
69932;DHT22;57243;52.064;5.116;2023-04-24T04:20:27;17.30;66.80
69932;DHT22;57243;52.064;5.116;2023-04-24T04:22:53;17.20;66.60
69932;DHT22;57243;52.064;5.116;2023-04-24T04:25:18;17.20;66.60
69932;DHT22;57243;52.064;5.116;2023-04-24T04:27:45;17.20;66.40
69932;DHT22;57243;52.064;5.116;2023-04-24T04:30:11;17.20;66.10
69932;DHT22;57243;52.064;5.116;2023-04-24T04:32:36;17.20;66.80
69932;DHT22;57243;52.064;5.116;2023-04-24T04:35:03;17.20;67.20
69932;DHT22;57243;52.064;5.116;2023-04-24T04:37:29;17.40;67.40
69932;DHT22;57243;52.064;5.116;2023-04-24T04:39:54;17.40;67.80
69932;DHT22;57243;52.064;5.116;2023-04-24T04:42:20;17.40;68.10
69932;DHT22;57243;52.064;5.116;2023-04-24T04:44:45;17.40;68.20
69932;DHT22;57243;52.064;5.116;2023-04-24T04:47:11;17.50;67.50
69932;DHT22;57243;52.064;5.116;2023-04-24T04:49:40;17.40;67.20
69932;DHT22;57243;52.064;5.116;2023-04-24T04:52:06;17.50;67.10
69932;DHT22;57243;52.064;5.116;2023-04-24T04:54:31;17.50;67.00
69932;DHT22;57243;52.064;5.116;2023-04-24T04:56:57;17.40;67.00
69932;DHT22;57243;52.064;5.116;2023-04-24T04:59:23;17.40;67.00
69932;DHT22;57243;52.064;5.116;2023-04-24T05:01:48;17.30;67.00
69932;DHT22;57243;52.064;5.116;2023-04-24T05:04:14;17.30;67.10
69932;DHT22;57243;52.064;5.116;2023-04-24T05:06:39;17.20;67.10
69932;DHT22;57243;52.064;5.116;2023-04-24T05:09:05;17.20;67.10
69932;DHT22;57243;52.064;5.116;2023-04-24T05:11:30;17.20;67.10
69932;DHT22;57243;52.064;5.116;2023-04-24T05:13:56;17.20;67.00
69932;DHT22;57243;52.064;5.116;2023-04-24T05:16:21;17.20;66.60
69932;DHT22;57243;52.064;5.116;2023-04-24T05:18:47;17.20;67.30
69932;DHT22;57243;52.064;5.116;2023-04-24T05:21:12;17.30;67.70
69932;DHT22;57243;52.064;5.116;2023-04-24T05:23:38;17.30;67.90
69932;DHT22;57243;52.064;5.116;2023-04-24T05:26:03;17.20;67.60
69932;DHT22;57243;52.064;5.116;2023-04-24T05:28:29;17.20;67.50
69932;DHT22;57243;52.064;5.116;2023-04-24T05:30:54;17.20;67.50
69932;DHT22;57243;52.064;5.116;2023-04-24T05:33:24;17.20;67.50
69932;DHT22;57243;52.064;5.116;2023-04-24T05:35:50;17.10;67.50
69932;DHT22;57243;52.064;5.116;2023-04-24T05:38:15;17.00;67.70
69932;DHT22;57243;52.064;5.116;2023-04-24T05:40:45;17.00;68.50
69932;DHT22;57243;52.064;5.116;2023-04-24T05:43:10;17.10;68.60
69932;DHT22;57243;52.064;5.116;2023-04-24T05:45:36;17.20;68.40
69932;DHT22;57243;52.064;5.116;2023-04-24T05:48:02;17.20;68.20
69932;DHT22;57243;52.064;5.116;2023-04-24T05:50:27;17.20;68.00
69932;DHT22;57243;52.064;5.116;2023-04-24T05:52:53;17.20;67.80
69932;DHT22;57243;52.064;5.116;2023-04-24T05:55:19;17.20;67.70
69932;DHT22;57243;52.064;5.116;2023-04-24T05:57:44;17.20;67.70
69932;DHT22;57243;52.064;5.116;2023-04-24T06:00:11;17.20;67.50
69932;DHT22;57243;52.064;5.116;2023-04-24T06:02:37;17.20;67.40
69932;DHT22;57243;52.064;5.116;2023-04-24T06:05:03;17.20;67.40
69932;DHT22;57243;52.064;5.116;2023-04-24T06:07:30;17.20;67.30
69932;DHT22;57243;52.064;5.116;2023-04-24T06:09:55;17.20;67.30
69932;DHT22;57243;52.064;5.116;2023-04-24T06:12:22;17.20;67.10
69932;DHT22;57243;52.064;5.116;2023-04-24T06:14:47;17.20;67.10
69932;DHT22;57243;52.064;5.116;2023-04-24T06:17:13;17.20;66.60
69932;DHT22;57243;52.064;5.116;2023-04-24T06:19:39;17.20;66.90
69932;DHT22;57243;52.064;5.116;2023-04-24T06:22:04;17.20;66.90
69932;DHT22;57243;52.064;5.116;2023-04-24T06:24:30;17.20;66.70
69932;DHT22;57243;52.064;5.116;2023-04-24T06:26:55;17.20;66.30
69932;DHT22;57243;52.064;5.116;2023-04-24T06:29:22;17.20;66.50
69932;DHT22;57243;52.064;5.116;2023-04-24T06:31:48;17.20;66.60
69932;DHT22;57243;52.064;5.116;2023-04-24T06:34:13;17.20;66.60
69932;DHT22;57243;52.064;5.116;2023-04-24T06:36:39;17.20;66.60
69932;DHT22;57243;52.064;5.116;2023-04-24T06:39:04;17.20;66.50
69932;DHT22;57243;52.064;5.116;2023-04-24T06:41:30;17.20;66.40
69932;DHT22;57243;52.064;5.116;2023-04-24T06:43:56;17.20;66.40
69932;DHT22;57243;52.064;5.116;2023-04-24T06:46:21;17.20;66.40
69932;DHT22;57243;52.064;5.116;2023-04-24T06:48:49;17.20;66.40
69932;DHT22;57243;52.064;5.116;2023-04-24T06:51:15;17.20;66.20
69932;DHT22;57243;52.064;5.116;2023-04-24T06:53:40;17.20;66.20
69932;DHT22;57243;52.064;5.116;2023-04-24T06:56:06;17.20;66.20
69932;DHT22;57243;52.064;5.116;2023-04-24T06:58:31;17.20;66.20
69932;DHT22;57243;52.064;5.116;2023-04-24T07:00:57;17.20;66.10
69932;DHT22;57243;52.064;5.116;2023-04-24T07:03:22;17.20;66.10
69932;DHT22;57243;52.064;5.116;2023-04-24T07:05:48;17.20;66.00
69932;DHT22;57243;52.064;5.116;2023-04-24T07:08:14;17.20;66.00
69932;DHT22;57243;52.064;5.116;2023-04-24T07:10:42;17.20;66.10
69932;DHT22;57243;52.064;5.116;2023-04-24T07:13:07;17.10;66.00
69932;DHT22;57243;52.064;5.116;2023-04-24T07:15:33;17.10;66.00
69932;DHT22;57243;52.064;5.116;2023-04-24T07:17:59;17.10;66.10
69932;DHT22;57243;52.064;5.116;2023-04-24T07:20:25;17.10;66.10
69932;DHT22;57243;52.064;5.116;2023-04-24T07:22:51;17.10;66.00
69932;DHT22;57243;52.064;5.116;2023-04-24T07:25:19;17.00;66.00
69932;DHT22;57243;52.064;5.116;2023-04-24T07:27:44;17.00;66.00
69932;DHT22;57243;52.064;5.116;2023-04-24T07:30:10;17.00;66.00
69932;DHT22;57243;52.064;5.116;2023-04-24T07:32:36;17.00;65.90
69932;DHT22;57243;52.064;5.116;2023-04-24T07:35:01;17.00;66.00
69932;DHT22;57243;52.064;5.116;2023-04-24T07:37:27;17.00;66.00
69932;DHT22;57243;52.064;5.116;2023-04-24T07:39:53;17.00;65.90
69932;DHT22;57243;52.064;5.116;2023-04-24T07:42:18;17.00;65.90
69932;DHT22;57243;52.064;5.116;2023-04-24T07:44:44;17.00;65.90
69932;DHT22;57243;52.064;5.116;2023-04-24T07:47:11;17.00;65.90
69932;DHT22;57243;52.064;5.116;2023-04-24T07:49:36;17.00;65.90
69932;DHT22;57243;52.064;5.116;2023-04-24T07:52:02;17.00;65.80
69932;DHT22;57243;52.064;5.116;2023-04-24T07:54:28;17.00;65.60
69932;DHT22;57243;52.064;5.116;2023-04-24T07:56:54;17.00;65.60
69932;DHT22;57243;52.064;5.116;2023-04-24T07:59:19;17.00;66.00
69932;DHT22;57243;52.064;5.116;2023-04-24T08:01:45;17.10;66.40
69932;DHT22;57243;52.064;5.116;2023-04-24T08:04:10;17.10;66.60
69932;DHT22;57243;52.064;5.116;2023-04-24T08:06:36;17.10;66.70
69932;DHT22;57243;52.064;5.116;2023-04-24T08:09:01;17.20;66.70
69932;DHT22;57243;52.064;5.116;2023-04-24T08:11:28;17.20;66.70
69932;DHT22;57243;52.064;5.116;2023-04-24T08:13:53;17.20;66.70
69932;DHT22;57243;52.064;5.116;2023-04-24T08:16:20;17.20;66.60
69932;DHT22;57243;52.064;5.116;2023-04-24T08:18:45;17.20;66.90
69932;DHT22;57243;52.064;5.116;2023-04-24T08:21:10;17.20;66.80
69932;DHT22;57243;52.064;5.116;2023-04-24T08:23:38;17.20;67.00
69932;DHT22;57243;52.064;5.116;2023-04-24T08:26:03;17.20;66.90
69932;DHT22;57243;52.064;5.116;2023-04-24T08:28:29;17.20;66.70
69932;DHT22;57243;52.064;5.116;2023-04-24T08:30:54;17.20;66.90
69932;DHT22;57243;52.064;5.116;2023-04-24T08:33:21;17.20;66.90
69932;DHT22;57243;52.064;5.116;2023-04-24T08:35:47;17.20;66.90
69932;DHT22;57243;52.064;5.116;2023-04-24T08:38:12;17.20;66.60
69932;DHT22;57243;52.064;5.116;2023-04-24T08:40:38;17.20;66.40
69932;DHT22;57243;52.064;5.116;2023-04-24T08:43:04;17.20;66.80
69932;DHT22;57243;52.064;5.116;2023-04-24T08:45:30;17.20;66.90
69932;DHT22;57243;52.064;5.116;2023-04-24T08:47:55;17.20;66.70
69932;DHT22;57243;52.064;5.116;2023-04-24T08:50:22;17.20;66.80
69932;DHT22;57243;52.064;5.116;2023-04-24T08:52:51;17.20;66.80
69932;DHT22;57243;52.064;5.116;2023-04-24T08:55:19;17.20;66.80
69932;DHT22;57243;52.064;5.116;2023-04-24T08:57:45;17.20;66.80
69932;DHT22;57243;52.064;5.116;2023-04-24T09:00:15;17.20;66.80
69932;DHT22;57243;52.064;5.116;2023-04-24T09:02:41;17.20;66.80
69932;DHT22;57243;52.064;5.116;2023-04-24T09:05:10;17.20;66.40
69932;DHT22;57243;52.064;5.116;2023-04-24T09:07:36;17.20;66.20
69932;DHT22;57243;52.064;5.116;2023-04-24T09:10:04;17.10;65.90
69932;DHT22;57243;52.064;5.116;2023-04-24T09:12:30;17.10;65.90
69932;DHT22;57243;52.064;5.116;2023-04-24T09:14:56;17.10;65.70
69932;DHT22;57243;52.064;5.116;2023-04-24T09:17:22;17.10;65.20
69932;DHT22;57243;52.064;5.116;2023-04-24T09:19:48;17.10;64.90
69932;DHT22;57243;52.064;5.116;2023-04-24T09:22:13;17.10;64.80
69932;DHT22;57243;52.064;5.116;2023-04-24T09:24:40;17.10;64.70
69932;DHT22;57243;52.064;5.116;2023-04-24T09:27:05;17.10;64.50
69932;DHT22;57243;52.064;5.116;2023-04-24T09:29:32;17.00;64.20
69932;DHT22;57243;52.064;5.116;2023-04-24T09:31:58;17.00;64.10
69932;DHT22;57243;52.064;5.116;2023-04-24T09:34:24;17.00;63.60
69932;DHT22;57243;52.064;5.116;2023-04-24T09:36:50;17.00;63.60
69932;DHT22;57243;52.064;5.116;2023-04-24T09:39:16;17.00;63.70
69932;DHT22;57243;52.064;5.116;2023-04-24T09:44:23;17.00;63.70
69932;DHT22;57243;52.064;5.116;2023-04-24T09:46:50;17.00;63.40
69932;DHT22;57243;52.064;5.116;2023-04-24T09:49:16;17.00;63.10
69932;DHT22;57243;52.064;5.116;2023-04-24T09:51:42;17.00;62.90
69932;DHT22;57243;52.064;5.116;2023-04-24T09:54:14;17.00;62.90
69932;DHT22;57243;52.064;5.116;2023-04-24T09:56:44;17.00;62.50
69932;DHT22;57243;52.064;5.116;2023-04-24T09:59:10;17.00;62.40
69932;DHT22;57243;52.064;5.116;2023-04-24T10:01:36;17.00;62.30
69932;DHT22;57243;52.064;5.116;2023-04-24T10:04:03;17.00;62.60
69932;DHT22;57243;52.064;5.116;2023-04-24T10:06:35;17.00;62.40
69932;DHT22;57243;52.064;5.116;2023-04-24T10:09:01;17.00;62.30
69932;DHT22;57243;52.064;5.116;2023-04-24T10:11:28;16.90;62.20
69932;DHT22;57243;52.064;5.116;2023-04-24T10:13:55;17.00;62.40
69932;DHT22;57243;52.064;5.116;2023-04-24T10:16:21;16.90;61.90
69932;DHT22;57243;52.064;5.116;2023-04-24T10:18:48;16.90;62.20
69932;DHT22;57243;52.064;5.116;2023-04-24T10:21:14;16.90;61.80
69932;DHT22;57243;52.064;5.116;2023-04-24T10:23:39;16.90;61.50
69932;DHT22;57243;52.064;5.116;2023-04-24T10:26:06;16.90;61.60
69932;DHT22;57243;52.064;5.116;2023-04-24T10:28:34;16.90;61.70
69932;DHT22;57243;52.064;5.116;2023-04-24T10:31:01;16.90;61.60
69932;DHT22;57243;52.064;5.116;2023-04-24T10:33:26;17.00;61.50
69932;DHT22;57243;52.064;5.116;2023-04-24T10:35:53;17.00;62.50
69932;DHT22;57243;52.064;5.116;2023-04-24T10:38:21;17.00;63.60
69932;DHT22;57243;52.064;5.116;2023-04-24T10:40:49;17.10;64.50
69932;DHT22;57243;52.064;5.116;2023-04-24T10:43:16;17.10;64.90
69932;DHT22;57243;52.064;5.116;2023-04-24T10:45:42;17.10;65.00
69932;DHT22;57243;52.064;5.116;2023-04-24T10:48:26;17.10;65.20
69932;DHT22;57243;52.064;5.116;2023-04-24T10:50:52;17.10;65.30
69932;DHT22;57243;52.064;5.116;2023-04-24T10:53:18;17.10;65.40
69932;DHT22;57243;52.064;5.116;2023-04-24T10:55:48;17.20;65.40
69932;DHT22;57243;52.064;5.116;2023-04-24T10:58:14;17.20;65.40
69932;DHT22;57243;52.064;5.116;2023-04-24T11:00:42;17.20;65.30
69932;DHT22;57243;52.064;5.116;2023-04-24T11:03:22;17.20;65.30
69932;DHT22;57243;52.064;5.116;2023-04-24T11:06:02;17.20;65.30
69932;DHT22;57243;52.064;5.116;2023-04-24T11:08:46;17.20;65.10
69932;DHT22;57243;52.064;5.116;2023-04-24T11:11:15;17.20;65.20
69932;DHT22;57243;52.064;5.116;2023-04-24T11:18:51;17.20;65.10
69932;DHT22;57243;52.064;5.116;2023-04-24T11:21:19;17.20;65.10
69932;DHT22;57243;52.064;5.116;2023-04-24T11:23:45;17.20;64.50
69932;DHT22;57243;52.064;5.116;2023-04-24T11:26:32;17.20;63.60
69932;DHT22;57243;52.064;5.116;2023-04-24T11:29:06;17.10;63.30
69932;DHT22;57243;52.064;5.116;2023-04-24T11:31:39;17.10;63.00
69932;DHT22;57243;52.064;5.116;2023-04-24T11:34:08;17.10;62.60
69932;DHT22;57243;52.064;5.116;2023-04-24T11:36:35;17.10;62.50
69932;DHT22;57243;52.064;5.116;2023-04-24T11:39:01;17.10;62.70
69932;DHT22;57243;52.064;5.116;2023-04-24T11:41:26;17.00;62.40
69932;DHT22;57243;52.064;5.116;2023-04-24T11:43:52;17.10;62.30
69932;DHT22;57243;52.064;5.116;2023-04-24T11:46:20;17.00;62.40
69932;DHT22;57243;52.064;5.116;2023-04-24T11:48:45;17.10;62.40
69932;DHT22;57243;52.064;5.116;2023-04-24T11:51:12;17.00;62.30
69932;DHT22;57243;52.064;5.116;2023-04-24T11:53:37;17.00;62.30
69932;DHT22;57243;52.064;5.116;2023-04-24T11:56:03;17.00;62.10
69932;DHT22;57243;52.064;5.116;2023-04-24T11:58:34;17.00;62.00
69932;DHT22;57243;52.064;5.116;2023-04-24T12:00:59;17.00;61.90
69932;DHT22;57243;52.064;5.116;2023-04-24T12:03:26;17.00;61.70
69932;DHT22;57243;52.064;5.116;2023-04-24T12:05:52;17.00;61.40
69932;DHT22;57243;52.064;5.116;2023-04-24T12:08:27;17.00;61.30
69932;DHT22;57243;52.064;5.116;2023-04-24T12:10:53;17.00;61.10
69932;DHT22;57243;52.064;5.116;2023-04-24T12:13:19;17.00;61.00
69932;DHT22;57243;52.064;5.116;2023-04-24T12:15:44;17.00;60.70
69932;DHT22;57243;52.064;5.116;2023-04-24T12:18:11;17.00;60.70
69932;DHT22;57243;52.064;5.116;2023-04-24T12:20:37;17.00;60.60
69932;DHT22;57243;52.064;5.116;2023-04-24T12:23:03;17.00;60.50
69932;DHT22;57243;52.064;5.116;2023-04-24T12:25:32;17.00;60.40
69932;DHT22;57243;52.064;5.116;2023-04-24T12:30:26;17.00;60.20
69932;DHT22;57243;52.064;5.116;2023-04-24T12:32:52;16.90;59.90
69932;DHT22;57243;52.064;5.116;2023-04-24T12:35:20;16.90;59.90
69932;DHT22;57243;52.064;5.116;2023-04-24T12:37:47;16.90;59.70
69932;DHT22;57243;52.064;5.116;2023-04-24T12:40:12;17.00;59.70
69932;DHT22;57243;52.064;5.116;2023-04-24T12:42:45;16.90;59.60
69932;DHT22;57243;52.064;5.116;2023-04-24T12:45:11;16.90;59.40
69932;DHT22;57243;52.064;5.116;2023-04-24T12:47:40;16.90;59.40
69932;DHT22;57243;52.064;5.116;2023-04-24T12:50:07;16.90;59.40
69932;DHT22;57243;52.064;5.116;2023-04-24T12:52:32;16.90;59.20
69932;DHT22;57243;52.064;5.116;2023-04-24T12:54:59;16.90;59.20
69932;DHT22;57243;52.064;5.116;2023-04-24T12:57:25;16.90;59.10
69932;DHT22;57243;52.064;5.116;2023-04-24T12:59:53;16.90;59.10
69932;DHT22;57243;52.064;5.116;2023-04-24T13:02:18;16.90;59.00
69932;DHT22;57243;52.064;5.116;2023-04-24T13:04:44;16.90;58.90
69932;DHT22;57243;52.064;5.116;2023-04-24T13:07:11;16.90;59.10
69932;DHT22;57243;52.064;5.116;2023-04-24T13:09:37;16.90;58.90
69932;DHT22;57243;52.064;5.116;2023-04-24T13:12:03;16.90;58.90
69932;DHT22;57243;52.064;5.116;2023-04-24T13:14:31;17.00;59.00
69932;DHT22;57243;52.064;5.116;2023-04-24T13:16:56;17.00;59.00
69932;DHT22;57243;52.064;5.116;2023-04-24T13:19:23;17.00;59.10
69932;DHT22;57243;52.064;5.116;2023-04-24T13:21:49;17.00;59.60
69932;DHT22;57243;52.064;5.116;2023-04-24T13:24:15;17.00;59.50
69932;DHT22;57243;52.064;5.116;2023-04-24T13:26:41;17.00;59.20
69932;DHT22;57243;52.064;5.116;2023-04-24T13:29:06;17.00;58.90
69932;DHT22;57243;52.064;5.116;2023-04-24T13:31:32;17.00;58.70
69932;DHT22;57243;52.064;5.116;2023-04-24T13:33:57;17.00;60.40
69932;DHT22;57243;52.064;5.116;2023-04-24T13:36:23;17.10;61.00
69932;DHT22;57243;52.064;5.116;2023-04-24T13:38:48;17.10;62.00
69932;DHT22;57243;52.064;5.116;2023-04-24T13:41:14;17.20;62.70
69932;DHT22;57243;52.064;5.116;2023-04-24T13:43:41;17.20;62.90
69932;DHT22;57243;52.064;5.116;2023-04-24T13:46:08;17.30;63.00
69932;DHT22;57243;52.064;5.116;2023-04-24T13:48:34;17.30;63.40
69932;DHT22;57243;52.064;5.116;2023-04-24T13:50:59;17.20;63.30
69932;DHT22;57243;52.064;5.116;2023-04-24T13:53:25;17.20;63.30
69932;DHT22;57243;52.064;5.116;2023-04-24T13:55:50;17.30;63.50
69932;DHT22;57243;52.064;5.116;2023-04-24T13:58:16;17.30;63.40
69932;DHT22;57243;52.064;5.116;2023-04-24T14:00:41;17.30;63.40
69932;DHT22;57243;52.064;5.116;2023-04-24T14:03:07;17.30;63.50
69932;DHT22;57243;52.064;5.116;2023-04-24T14:05:32;17.20;63.50
69932;DHT22;57243;52.064;5.116;2023-04-24T14:07:58;17.30;63.50
69932;DHT22;57243;52.064;5.116;2023-04-24T14:10:24;17.30;63.50
69932;DHT22;57243;52.064;5.116;2023-04-24T14:12:49;17.20;63.50
69932;DHT22;57243;52.064;5.116;2023-04-24T14:15:15;17.30;63.40
69932;DHT22;57243;52.064;5.116;2023-04-24T14:17:42;17.20;63.40
69932;DHT22;57243;52.064;5.116;2023-04-24T14:20:07;17.20;63.50
69932;DHT22;57243;52.064;5.116;2023-04-24T14:22:34;17.20;63.40
69932;DHT22;57243;52.064;5.116;2023-04-24T14:24:59;17.20;63.30
69932;DHT22;57243;52.064;5.116;2023-04-24T14:27:25;17.30;63.40
69932;DHT22;57243;52.064;5.116;2023-04-24T14:29:51;17.30;63.00
69932;DHT22;57243;52.064;5.116;2023-04-24T14:32:17;17.30;63.20
69932;DHT22;57243;52.064;5.116;2023-04-24T14:34:42;17.20;63.20
69932;DHT22;57243;52.064;5.116;2023-04-24T14:37:08;17.20;62.70
69932;DHT22;57243;52.064;5.116;2023-04-24T14:39:33;17.20;62.60
69932;DHT22;57243;52.064;5.116;2023-04-24T14:42:00;17.20;63.00
69932;DHT22;57243;52.064;5.116;2023-04-24T14:44:26;17.30;63.20
69932;DHT22;57243;52.064;5.116;2023-04-24T14:46:51;17.20;63.30
69932;DHT22;57243;52.064;5.116;2023-04-24T14:49:17;17.20;63.30
69932;DHT22;57243;52.064;5.116;2023-04-24T14:51:43;17.30;63.40
69932;DHT22;57243;52.064;5.116;2023-04-24T14:54:08;17.20;63.40
69932;DHT22;57243;52.064;5.116;2023-04-24T14:56:34;17.20;63.40
69932;DHT22;57243;52.064;5.116;2023-04-24T14:59:00;17.20;63.50
69932;DHT22;57243;52.064;5.116;2023-04-24T15:01:25;17.30;63.60
69932;DHT22;57243;52.064;5.116;2023-04-24T15:03:51;17.30;63.50
69932;DHT22;57243;52.064;5.116;2023-04-24T15:06:16;17.20;63.60
69932;DHT22;57243;52.064;5.116;2023-04-24T15:08:42;17.30;63.60
69932;DHT22;57243;52.064;5.116;2023-04-24T15:11:08;17.30;63.60
69932;DHT22;57243;52.064;5.116;2023-04-24T15:13:34;17.20;63.60
69932;DHT22;57243;52.064;5.116;2023-04-24T15:16:00;17.30;63.60
69932;DHT22;57243;52.064;5.116;2023-04-24T15:18:25;17.30;63.50
69932;DHT22;57243;52.064;5.116;2023-04-24T15:20:52;17.30;63.50
69932;DHT22;57243;52.064;5.116;2023-04-24T15:23:18;17.30;63.50
69932;DHT22;57243;52.064;5.116;2023-04-24T15:25:43;17.20;63.40
69932;DHT22;57243;52.064;5.116;2023-04-24T15:28:09;17.20;63.40
69932;DHT22;57243;52.064;5.116;2023-04-24T15:30:34;17.20;63.40
69932;DHT22;57243;52.064;5.116;2023-04-24T15:33:00;17.20;63.30